Terminal Aerodrome Forecast
Issued by NWS

Home | Current Version | Previous Version | Text Only | Print | Product List | Glossary On
Versions: 1 2 3 4 5 6 7 8 9 10 11 12 13 14 15
351
FTUS44 KMAF 220522
TAFHOB
TAF
KHOB 220522Z 2206/2306 17015G22KT P6SM FEW200
     FM220800 16012KT P6SM FEW200
     FM221400 15012KT P6SM OVC015
     FM221700 14013G22KT P6SM SCT070=

USA.gov is the U.S. government's official web portal to all federal, state and local government web resources and services.